createdAt,value
2022-10-24T00:02:25.364Z,99032.50
2022-10-24T00:04:54.079Z,99030.22
2022-10-24T00:07:22.605Z,99026.56
2022-10-24T00:09:51.180Z,99027.44
2022-10-24T00:14:52.214Z,99016.00
2022-10-24T00:17:20.758Z,99013.19
2022-10-24T00:19:50.660Z,99009.81
2022-10-24T00:22:18.863Z,98996.75
2022-10-24T00:24:47.334Z,99013.19
2022-10-24T00:27:15.817Z,99003.78
2022-10-24T00:29:44.314Z,99005.19
2022-10-24T00:32:12.626Z,98987.53
2022-10-24T00:34:40.937Z,99000.56
2022-10-24T00:37:10.960Z,99001.22
2022-10-24T00:39:39.424Z,98996.53
2022-10-24T00:42:07.808Z,99005.78
2022-10-24T00:44:40.690Z,99000.84
2022-10-24T00:47:12.563Z,98993.50
2022-10-24T00:49:49.714Z,98977.84
2022-10-24T00:52:24.635Z,98984.09
2022-10-24T00:54:56.054Z,98986.16
2022-10-24T00:57:29.183Z,98983.38
2022-10-24T01:00:03.488Z,98976.91
2022-10-24T01:02:32.202Z,98970.22
2022-10-24T01:05:01.456Z,98970.81
2022-10-24T01:07:49.214Z,98960.41
2022-10-24T01:10:40.302Z,98948.16
2022-10-24T01:13:21.501Z,98961.06
2022-10-24T01:15:56.051Z,98963.63
2022-10-24T01:18:31.081Z,98962.31
2022-10-24T01:21:15.919Z,98955.63
2022-10-24T01:24:19.254Z,98944.63
2022-10-24T01:27:05.721Z,98942.47
2022-10-24T01:29:54.320Z,98941.09
2022-10-24T01:32:36.171Z,98933.31
2022-10-24T01:35:15.571Z,98938.00
2022-10-24T01:37:52.485Z,98923.09
2022-10-24T01:40:28.011Z,98918.25
2022-10-24T01:43:02.309Z,98918.03
2022-10-24T01:45:36.566Z,98906.56
2022-10-24T01:48:10.685Z,98921.09
2022-10-24T01:50:40.147Z,98906.13
2022-10-24T01:53:10.256Z,98902.03
2022-10-24T01:55:40.977Z,98909.22
2022-10-24T01:58:09.640Z,98912.97
2022-10-24T02:00:40.067Z,98901.66
2022-10-24T02:03:20.939Z,98907.63
2022-10-24T02:05:54.031Z,98902.25
2022-10-24T02:08:31.397Z,98908.34
2022-10-24T02:11:04.411Z,98891.22
2022-10-24T02:13:42.249Z,98895.28
2022-10-24T02:16:14.197Z,98899.84
2022-10-24T02:18:42.952Z,98899.47
2022-10-24T02:21:26.081Z,98909.53
2022-10-24T02:24:01.494Z,98901.91
2022-10-24T02:26:35.704Z,98900.41
2022-10-24T02:29:10.269Z,98901.47
2022-10-24T02:31:45.624Z,98882.66
2022-10-24T02:34:15.423Z,98898.22
2022-10-24T02:36:46.517Z,98880.59
2022-10-24T02:39:17.266Z,98884.28
2022-10-24T02:41:48.151Z,98889.56
2022-10-24T02:44:20.087Z,98888.75
2022-10-24T02:46:51.922Z,98882.31
2022-10-24T02:49:20.439Z,98884.81
2022-10-24T02:51:50.352Z,98892.31
2022-10-24T02:54:19.343Z,98884.97
2022-10-24T02:56:52.045Z,98882.03
2022-10-24T02:59:20.397Z,98895.88
2022-10-24T03:01:50.361Z,98896.41
2022-10-24T03:04:19.016Z,98881.16
2022-10-24T03:06:47.504Z,98879.59
2022-10-24T03:09:16.281Z,98874.22
2022-10-24T03:11:44.648Z,98869.81
2022-10-24T03:14:13.006Z,98876.44
2022-10-24T03:16:41.546Z,98871.28
2022-10-24T03:19:11.579Z,98884.22
2022-10-24T03:21:40.135Z,98885.50
2022-10-24T03:24:09.074Z,98875.69
2022-10-24T03:26:37.298Z,98875.69
2022-10-24T03:29:06.633Z,98880.16
2022-10-24T03:31:35.133Z,98898.09
2022-10-24T03:34:03.434Z,98884.25
2022-10-24T03:36:33.348Z,98867.66
2022-10-24T03:39:01.957Z,98877.75
2022-10-24T03:41:30.549Z,98867.94
2022-10-24T03:43:58.912Z,98869.03
2022-10-24T03:46:27.315Z,98864.00
2022-10-24T03:48:55.591Z,98862.50
2022-10-24T03:51:23.918Z,98866.69
2022-10-24T03:53:53.786Z,98863.25
2022-10-24T03:56:22.213Z,98854.94
2022-10-24T03:58:50.834Z,98865.00
2022-10-24T04:01:19.513Z,98861.78
2022-10-24T04:03:48.799Z,98858.78
2022-10-24T04:06:17.850Z,98856.19
2022-10-24T04:08:46.112Z,98871.91
2022-10-24T04:11:15.961Z,98873.66
2022-10-24T04:13:44.473Z,98875.25
2022-10-24T04:16:12.757Z,98876.44
2022-10-24T04:18:41.138Z,98886.09
2022-10-24T04:21:09.657Z,98892.63
2022-10-24T04:23:41.054Z,98898.97
2022-10-24T04:26:09.861Z,98892.63
2022-10-24T04:28:39.661Z,98900.63
2022-10-24T04:31:08.752Z,98901.00
2022-10-24T04:33:37.360Z,98906.50
2022-10-24T04:36:06.967Z,98901.22
2022-10-24T04:38:35.207Z,98909.50
2022-10-24T04:41:06.208Z,98901.09
2022-10-24T04:43:37.283Z,98910.94
2022-10-24T04:46:07.348Z,98905.22
2022-10-24T04:48:35.689Z,98895.56
2022-10-24T04:51:04.345Z,98915.44
2022-10-24T04:53:32.813Z,98907.50
2022-10-24T04:56:01.295Z,98918.31
2022-10-24T04:58:29.905Z,98920.78
2022-10-24T05:00:58.210Z,98919.53
2022-10-24T05:03:28.210Z,98926.06
2022-10-24T05:05:56.516Z,98928.91
2022-10-24T05:08:24.849Z,98933.09
2022-10-24T05:10:53.534Z,98938.19
2022-10-24T05:13:21.920Z,98944.78
2022-10-24T05:15:50.608Z,98942.31
2022-10-24T05:18:18.902Z,98941.31
2022-10-24T05:20:48.698Z,98953.09
2022-10-24T05:23:17.079Z,98954.94
2022-10-24T05:25:45.369Z,98961.81
2022-10-24T05:28:13.953Z,98958.16
2022-10-24T05:30:44.591Z,98964.66
2022-10-24T05:33:13.259Z,98964.25
2022-10-24T05:35:42.957Z,98970.09
2022-10-24T05:38:12.780Z,98968.38
2022-10-24T05:40:41.136Z,98965.50
2022-10-24T05:43:10.210Z,98976.03
2022-10-24T05:45:38.706Z,98975.88
2022-10-24T05:48:07.921Z,98970.78
2022-10-24T05:50:37.056Z,98971.84
2022-10-24T05:53:05.939Z,98974.88
2022-10-24T05:55:36.084Z,98978.50
2022-10-24T05:58:04.642Z,98978.94
2022-10-24T06:00:33.929Z,98977.72
2022-10-24T06:03:02.591Z,98976.91
2022-10-24T06:05:31.303Z,98983.56
2022-10-24T06:08:00.944Z,98984.63
2022-10-24T06:10:29.822Z,98990.88
2022-10-24T06:12:59.955Z,98982.59
2022-10-24T06:15:28.599Z,98992.28
2022-10-24T06:17:57.262Z,99006.50
2022-10-24T06:20:25.745Z,99007.75
2022-10-24T06:22:54.171Z,99006.72
2022-10-24T06:25:22.928Z,99010.41
2022-10-24T06:27:51.433Z,99007.75
2022-10-24T06:30:21.305Z,99008.13
2022-10-24T06:32:50.078Z,99008.53
2022-10-24T06:35:19.213Z,99020.66
2022-10-24T06:37:48.538Z,99007.56
2022-10-24T06:40:17.723Z,99015.25
2022-10-24T06:42:46.869Z,99022.53
2022-10-24T06:45:15.596Z,99025.38
2022-10-24T06:47:46.004Z,99035.50
2022-10-24T06:50:15.417Z,99042.34
2022-10-24T06:52:44.209Z,99042.75
2022-10-24T06:55:12.792Z,99037.91
2022-10-24T06:57:45.289Z,99040.75
2022-10-24T07:00:15.537Z,99046.63
2022-10-24T07:02:45.748Z,99051.31
2022-10-24T07:05:14.518Z,99059.44
2022-10-24T07:07:45.032Z,99055.97
2022-10-24T07:10:15.482Z,99054.13
2022-10-24T07:12:44.489Z,99070.53
2022-10-24T07:15:13.834Z,99072.19
2022-10-24T07:17:45.603Z,99076.19
2022-10-24T07:20:15.973Z,99072.16
2022-10-24T07:22:45.696Z,99085.53
2022-10-24T07:25:14.207Z,99089.97
2022-10-24T07:27:43.434Z,99091.59
2022-10-24T07:30:18.739Z,99081.06
2022-10-24T07:32:48.929Z,99084.53
2022-10-24T07:35:17.682Z,99084.94
2022-10-24T07:37:46.658Z,99080.50
2022-10-24T07:40:15.074Z,99094.25
2022-10-24T07:42:43.909Z,99097.31
2022-10-24T07:45:13.327Z,99085.94
2022-10-24T07:47:42.116Z,99092.44
2022-10-24T07:50:12.958Z,99095.69
2022-10-24T07:52:41.655Z,99086.09
2022-10-24T07:55:11.089Z,99096.78
2022-10-24T07:57:39.689Z,99077.34
2022-10-24T08:00:10.492Z,99081.09
2022-10-24T08:02:42.224Z,99083.34
2022-10-24T08:05:13.612Z,99085.78
2022-10-24T08:07:43.129Z,99073.16
2022-10-24T08:10:14.601Z,99077.50
2022-10-24T08:12:43.436Z,99088.97
2022-10-24T08:15:12.918Z,99084.78
2022-10-24T08:17:41.455Z,99095.94
2022-10-24T08:20:14.806Z,99096.44
2022-10-24T08:22:46.021Z,99090.91
2022-10-24T08:25:14.786Z,99095.22
2022-10-24T08:27:44.700Z,99093.81
2022-10-24T08:30:14.642Z,99102.47
2022-10-24T08:32:43.237Z,99105.66
2022-10-24T08:35:16.751Z,99094.09
2022-10-24T08:37:45.531Z,99094.06
2022-10-24T08:40:19.328Z,99082.75
2022-10-24T08:42:49.736Z,99097.09
2022-10-24T08:45:28.217Z,99094.88
2022-10-24T08:48:06.011Z,99095.66
2022-10-24T08:50:39.082Z,99098.47
2022-10-24T08:53:14.799Z,99102.38
2022-10-24T08:55:50.242Z,99102.03
2022-10-24T08:58:24.824Z,99094.53
2022-10-24T09:00:56.162Z,99102.75
2022-10-24T09:04:01.254Z,99099.84
2022-10-24T09:06:26.243Z,99099.09
2022-10-24T09:08:58.153Z,99110.31
2022-10-24T09:11:38.868Z,99102.84
2022-10-24T09:14:14.626Z,99118.47
2022-10-24T09:16:44.425Z,99096.66
2022-10-24T09:19:17.640Z,99122.34
2022-10-24T09:21:48.988Z,99137.78
2022-10-24T09:24:31.970Z,99125.44
2022-10-24T09:27:04.314Z,99132.25
2022-10-24T09:29:35.030Z,99148.22
2022-10-24T09:32:04.950Z,99130.97
2022-10-24T09:34:33.508Z,99141.41
2022-10-24T09:37:03.368Z,99135.25
2022-10-24T09:39:34.571Z,99134.69
2022-10-24T09:42:04.985Z,99148.03
2022-10-24T09:44:40.973Z,99146.78
2022-10-24T09:47:26.317Z,99136.44
2022-10-24T09:49:55.851Z,99156.53
2022-10-24T09:52:32.058Z,99166.91
2022-10-24T09:55:18.348Z,99152.56
2022-10-24T09:57:47.255Z,99163.22
2022-10-24T10:00:26.723Z,99164.97
2022-10-24T10:03:01.984Z,99184.72
2022-10-24T10:05:47.956Z,99179.16
2022-10-24T10:08:24.527Z,99186.44
2022-10-24T10:11:03.674Z,99185.41
2022-10-24T10:13:38.164Z,99189.22
2022-10-24T10:16:15.940Z,99194.16
2022-10-24T10:18:48.415Z,99191.91
2022-10-24T10:21:20.570Z,99184.53
2022-10-24T10:23:52.274Z,99205.97
2022-10-24T10:26:28.734Z,99197.81
2022-10-24T10:29:02.169Z,99208.81
2022-10-24T10:31:43.649Z,99207.97
2022-10-24T10:34:25.406Z,99218.19
2022-10-24T10:37:22.563Z,99217.75
2022-10-24T10:40:18.900Z,99223.47
2022-10-24T10:43:05.700Z,99234.91
2022-10-24T10:45:40.454Z,99229.91
2022-10-24T10:48:30.461Z,99241.56
2022-10-24T10:51:08.795Z,99233.78
2022-10-24T10:53:43.381Z,99236.25
2022-10-24T10:56:28.400Z,99249.91
2022-10-24T10:59:13.693Z,99237.69
2022-10-24T11:01:53.296Z,99244.63
2022-10-24T11:04:31.159Z,99241.13
2022-10-24T11:07:07.987Z,99242.56
2022-10-24T11:09:42.582Z,99247.13
2022-10-24T11:12:19.998Z,99248.81
2022-10-24T11:14:54.557Z,99261.84
2022-10-24T11:17:27.712Z,99264.22
2022-10-24T11:20:06.212Z,99254.78
2022-10-24T11:22:41.694Z,99256.66
2022-10-24T11:25:24.562Z,99270.66
2022-10-24T11:28:03.258Z,99265.53
2022-10-24T11:30:44.831Z,99245.75
2022-10-24T11:33:21.228Z,99259.41
2022-10-24T11:36:12.210Z,99269.34
2022-10-24T11:38:49.641Z,99264.13
2022-10-24T11:41:34.507Z,99268.16
2022-10-24T11:44:16.257Z,99273.72
2022-10-24T11:46:50.151Z,99278.72
2022-10-24T11:49:25.941Z,99277.13
2022-10-24T11:52:00.667Z,99278.97
2022-10-24T11:54:35.297Z,99291.94
2022-10-24T11:57:07.528Z,99276.59
2022-10-24T11:59:43.235Z,99272.09
2022-10-24T12:02:54.790Z,99283.66
2022-10-24T12:05:46.880Z,99275.41
2022-10-24T12:08:43.421Z,99283.13
2022-10-24T12:11:50.914Z,99284.84
2022-10-24T12:14:45.885Z,99282.03
2022-10-24T12:17:41.388Z,99280.06
2022-10-24T12:20:23.301Z,99278.13
2022-10-24T12:22:52.789Z,99279.97
2022-10-24T12:25:30.063Z,99280.22
2022-10-24T12:28:03.441Z,99281.44
2022-10-24T12:30:37.396Z,99285.03
2022-10-24T12:33:14.357Z,99277.69
2022-10-24T12:35:56.472Z,99285.22
2022-10-24T12:39:10.174Z,99274.38
2022-10-24T12:41:42.966Z,99285.25
2022-10-24T12:44:54.468Z,99274.94
2022-10-24T12:47:38.624Z,99280.47
2022-10-24T12:51:02.579Z,99268.06
2022-10-24T12:54:06.859Z,99276.31
2022-10-24T12:56:36.299Z,99269.66
2022-10-24T12:59:21.271Z,99268.34
2022-10-24T13:01:52.813Z,99271.88
2022-10-24T13:04:57.691Z,99260.47
2022-10-24T13:07:50.774Z,99258.94
2022-10-24T13:10:44.053Z,99260.31
2022-10-24T13:13:44.729Z,99252.59
2022-10-24T13:16:27.029Z,99258.72
2022-10-24T13:19:10.107Z,99250.50
2022-10-24T13:21:49.984Z,99244.06
2022-10-24T13:24:33.926Z,99228.09
2022-10-24T13:27:32.297Z,99238.25
2022-10-24T13:30:32.565Z,99243.19
2022-10-24T13:33:42.636Z,99246.91
2022-10-24T13:36:27.913Z,99247.03
2022-10-24T13:39:03.077Z,99254.47
2022-10-24T13:41:35.733Z,99249.22
2022-10-24T13:44:09.098Z,99251.16
2022-10-24T13:46:46.875Z,99248.50
2022-10-24T13:49:24.802Z,99247.38
2022-10-24T13:51:59.964Z,99252.84
2022-10-24T13:54:35.819Z,99254.59
2022-10-24T13:57:04.168Z,99245.13
2022-10-24T13:59:36.733Z,99250.13
2022-10-24T14:02:08.333Z,99250.94
2022-10-24T14:04:39.769Z,99252.44
2022-10-24T14:07:10.131Z,99257.44
2022-10-24T14:09:45.061Z,99257.97
2022-10-24T14:12:21.239Z,99259.03
2022-10-24T14:14:53.020Z,99260.94
2022-10-24T14:17:27.340Z,99261.16
2022-10-24T14:19:59.996Z,99270.44
2022-10-24T14:22:36.403Z,99272.22
2022-10-24T14:25:07.528Z,99275.50
2022-10-24T14:27:36.743Z,99290.63
2022-10-24T14:30:07.980Z,99289.72
2022-10-24T14:32:36.486Z,99296.97
2022-10-24T14:35:05.665Z,99298.06
2022-10-24T14:37:38.712Z,99299.19
2022-10-24T14:40:19.014Z,99296.03
2022-10-24T14:42:48.717Z,99305.50
2022-10-24T14:45:26.658Z,99297.84
2022-10-24T14:47:58.150Z,99297.00
2022-10-24T14:50:43.309Z,99293.31
2022-10-24T14:53:25.943Z,99305.97
2022-10-24T14:55:58.191Z,99300.91
2022-10-24T14:58:30.348Z,99307.66
2022-10-24T15:01:00.318Z,99297.94
2022-10-24T15:03:30.924Z,99299.53
2022-10-24T15:06:12.465Z,99291.09
2022-10-24T15:08:45.967Z,99293.72
2022-10-24T15:11:30.694Z,99290.00
2022-10-24T15:14:06.630Z,99294.59
2022-10-24T15:16:40.649Z,99287.16
2022-10-24T15:19:18.027Z,99299.97
2022-10-24T15:21:49.347Z,99299.97
2022-10-24T15:24:25.942Z,99296.88
2022-10-24T15:27:12.859Z,99298.31
2022-10-24T15:29:42.475Z,99302.22
2022-10-24T15:32:12.105Z,99315.25
2022-10-24T15:34:40.603Z,99311.59
2022-10-24T15:37:23.451Z,99315.50
2022-10-24T15:39:53.911Z,99316.66
2022-10-24T15:42:24.384Z,99326.84
2022-10-24T15:44:52.941Z,99326.47
2022-10-24T15:47:23.829Z,99323.44
2022-10-24T15:49:53.022Z,99319.75
2022-10-24T15:52:21.843Z,99328.06
2022-10-24T15:54:50.728Z,99323.03
2022-10-24T15:57:21.237Z,99322.84
2022-10-24T15:59:51.069Z,99330.34
2022-10-24T16:02:24.033Z,99332.41
2022-10-24T16:04:52.748Z,99332.59
2022-10-24T16:07:21.212Z,99333.00
2022-10-24T16:09:49.596Z,99340.50
2022-10-24T16:12:18.127Z,99340.50
2022-10-24T16:14:46.439Z,99338.28
2022-10-24T16:17:16.404Z,99350.88
2022-10-24T16:19:44.895Z,99342.97
2022-10-24T16:22:13.574Z,99347.81
2022-10-24T16:24:41.944Z,99348.44
2022-10-24T16:27:10.680Z,99341.94
2022-10-24T16:29:39.229Z,99353.91
2022-10-24T16:32:07.693Z,99353.50
2022-10-24T16:34:37.879Z,99353.91
2022-10-24T16:37:06.390Z,99348.44
2022-10-24T16:39:35.641Z,99360.22
2022-10-24T16:42:05.294Z,99354.94
2022-10-24T16:44:36.925Z,99351.09
2022-10-24T16:47:05.537Z,99352.28
2022-10-24T16:49:34.322Z,99356.75
2022-10-24T16:52:04.640Z,99361.63
2022-10-24T16:54:32.924Z,99359.81
2022-10-24T16:57:01.573Z,99369.94
2022-10-24T16:59:30.323Z,99370.34
2022-10-24T17:01:59.315Z,99380.91
2022-10-24T17:04:32.838Z,99376.66
2022-10-24T17:07:05.646Z,99381.09
2022-10-24T17:09:34.843Z,99387.16
2022-10-24T17:12:04.494Z,99389.81
2022-10-24T17:14:34.585Z,99382.94
2022-10-24T17:17:02.995Z,99389.41
2022-10-24T17:19:32.233Z,99379.28
2022-10-24T17:22:01.029Z,99389.53
2022-10-24T17:24:31.926Z,99392.00
2022-10-24T17:27:00.771Z,99383.47
2022-10-24T17:29:32.938Z,99396.25
2022-10-24T17:32:02.014Z,99390.97
2022-10-24T17:34:31.327Z,99397.44
2022-10-24T17:37:06.973Z,99389.13
2022-10-24T17:39:47.944Z,99392.88
2022-10-24T17:42:16.863Z,99391.84
2022-10-24T17:44:47.623Z,99397.28
2022-10-24T17:47:16.822Z,99396.63
2022-10-24T17:49:45.648Z,99401.25
2022-10-24T17:52:19.666Z,99403.34
2022-10-24T17:54:49.857Z,99408.78
2022-10-24T17:57:18.365Z,99410.22
2022-10-24T17:59:46.964Z,99409.00
2022-10-24T18:02:16.398Z,99412.84
2022-10-24T18:04:45.495Z,99419.31
2022-10-24T18:07:14.931Z,99424.34
2022-10-24T18:09:43.574Z,99422.56
2022-10-24T18:12:13.179Z,99426.97
2022-10-24T18:14:41.705Z,99430.63
2022-10-24T18:17:10.518Z,99433.88
2022-10-24T18:19:39.406Z,99445.78
2022-10-24T18:22:07.889Z,99450.09
2022-10-24T18:24:36.278Z,99444.81
2022-10-24T18:27:04.797Z,99447.53
2022-10-24T18:29:35.150Z,99443.03
2022-10-24T18:32:03.999Z,99439.63
2022-10-24T18:34:33.210Z,99433.53
2022-10-24T18:37:02.158Z,99439.47
2022-10-24T18:39:30.728Z,99438.47
2022-10-24T18:42:06.074Z,99455.88
2022-10-24T18:44:37.908Z,99451.19
2022-10-24T18:47:09.129Z,99454.38
2022-10-24T18:49:38.970Z,99451.19
2022-10-24T18:52:17.933Z,99452.38
2022-10-24T18:54:58.574Z,99454.81
2022-10-24T18:57:30.979Z,99449.78
2022-10-24T19:00:01.810Z,99439.19
2022-10-24T19:02:37.728Z,99450.13
2022-10-24T19:05:20.434Z,99448.53
2022-10-24T19:07:50.209Z,99446.53
2022-10-24T19:10:26.995Z,99446.28
2022-10-24T19:12:59.302Z,99453.41
2022-10-24T19:15:30.768Z,99449.31
2022-10-24T19:17:59.644Z,99451.41
2022-10-24T19:20:28.589Z,99444.81
2022-10-24T19:22:58.462Z,99446.28
2022-10-24T19:25:27.559Z,99452.34
2022-10-24T19:27:56.091Z,99444.47
2022-10-24T19:30:24.603Z,99448.59
2022-10-24T19:32:54.443Z,99457.97
2022-10-24T19:35:22.704Z,99457.97
2022-10-24T19:37:51.606Z,99456.72
2022-10-24T19:40:20.181Z,99466.91
2022-10-24T19:42:49.025Z,99457.19
2022-10-24T19:45:20.259Z,99463.56
2022-10-24T19:47:57.348Z,99469.84
2022-10-24T19:50:26.341Z,99473.47
2022-10-24T19:52:55.255Z,99479.13
2022-10-24T19:55:23.849Z,99480.75
2022-10-24T19:57:52.329Z,99479.81
2022-10-24T20:00:21.225Z,99475.69
2022-10-24T20:02:49.833Z,99476.25
2022-10-24T20:05:20.235Z,99473.34
2022-10-24T20:07:48.712Z,99478.56
2022-10-24T20:10:17.948Z,99480.13
2022-10-24T20:12:46.913Z,99488.09
2022-10-24T20:15:16.220Z,99497.16
2022-10-24T20:17:44.691Z,99489.69
2022-10-24T20:20:13.683Z,99486.16
2022-10-24T20:22:44.178Z,99494.88
2022-10-24T20:25:13.214Z,99494.50
2022-10-24T20:27:43.788Z,99497.00
2022-10-24T20:30:13.763Z,99501.59
2022-10-24T20:32:42.260Z,99510.38
2022-10-24T20:35:10.721Z,99523.03
2022-10-24T20:37:39.295Z,99526.66
2022-10-24T20:40:12.737Z,99532.97
2022-10-24T20:42:41.592Z,99539.81
2022-10-24T20:45:11.067Z,99546.50
2022-10-24T20:47:39.561Z,99549.38
2022-10-24T20:50:09.903Z,99555.38
2022-10-24T20:52:38.680Z,99552.06
2022-10-24T20:55:19.708Z,99554.84
2022-10-24T20:57:58.744Z,99555.97
2022-10-24T21:00:27.486Z,99566.19
2022-10-24T21:02:56.360Z,99562.53
2022-10-24T21:05:27.485Z,99557.78
2022-10-24T21:07:56.454Z,99567.00
2022-10-24T21:10:26.916Z,99565.59
2022-10-24T21:12:55.699Z,99572.94
2022-10-24T21:15:24.416Z,99572.44
2022-10-24T21:17:53.151Z,99568.44
2022-10-24T21:20:21.802Z,99577.16
2022-10-24T21:22:51.358Z,99591.84
2022-10-24T21:25:20.008Z,99587.09
2022-10-24T21:27:50.190Z,99586.34
2022-10-24T21:30:19.290Z,99585.47
2022-10-24T21:32:47.854Z,99585.66
2022-10-24T21:35:16.776Z,99582.66
2022-10-24T21:37:46.414Z,99597.31
2022-10-24T21:40:18.321Z,99600.47
2022-10-24T21:42:47.244Z,99592.00
2022-10-24T21:45:17.833Z,99603.72
2022-10-24T21:47:46.310Z,99590.69
2022-10-24T21:50:14.656Z,99596.44
2022-10-24T21:52:43.598Z,99594.44
2022-10-24T21:55:12.708Z,99600.94
2022-10-24T21:57:41.374Z,99603.84
2022-10-24T22:00:12.155Z,99594.38
2022-10-24T22:02:42.482Z,99612.50
2022-10-24T22:05:11.657Z,99604.97
2022-10-24T22:07:41.182Z,99608.91
2022-10-24T22:10:12.000Z,99619.31
2022-10-24T22:12:40.541Z,99617.38
2022-10-24T22:15:10.311Z,99629.88
2022-10-24T22:17:38.829Z,99617.84
2022-10-24T22:20:10.886Z,99632.81
2022-10-24T22:22:39.491Z,99629.13
2022-10-24T22:25:09.338Z,99631.13
2022-10-24T22:27:37.932Z,99627.59
2022-10-24T22:30:08.657Z,99631.13
2022-10-24T22:32:38.127Z,99617.63
2022-10-24T22:35:12.815Z,99630.84
2022-10-24T22:37:44.333Z,99631.13
2022-10-24T22:40:28.160Z,99636.28
2022-10-24T22:42:58.256Z,99640.84
2022-10-24T22:45:27.912Z,99638.28
2022-10-24T22:48:12.653Z,99647.66
2022-10-24T22:50:59.028Z,99645.16
2022-10-24T22:53:31.570Z,99642.16
2022-10-24T22:56:17.143Z,99647.19
2022-10-24T22:58:47.336Z,99652.56
2022-10-24T23:01:49.911Z,99649.94
2022-10-24T23:04:29.861Z,99649.25
2022-10-24T23:07:10.811Z,99659.28
2022-10-24T23:09:39.337Z,99661.66
2022-10-24T23:12:15.158Z,99664.56
2022-10-24T23:14:44.680Z,99669.28
2022-10-24T23:17:18.268Z,99670.06
2022-10-24T23:19:47.638Z,99678.63
2022-10-24T23:22:24.959Z,99681.44
2022-10-24T23:24:56.173Z,99679.84
2022-10-24T23:27:35.045Z,99684.88
2022-10-24T23:30:06.012Z,99694.59
2022-10-24T23:32:39.445Z,99688.03
2022-10-24T23:35:10.396Z,99701.84
2022-10-24T23:37:43.471Z,99695.41
2022-10-24T23:40:27.024Z,99700.00
2022-10-24T23:42:56.871Z,99703.56
2022-10-24T23:45:29.005Z,99701.41
2022-10-24T23:48:14.769Z,99703.56
2022-10-24T23:50:53.608Z,99700.09
2022-10-24T23:53:42.369Z,99701.56
2022-10-24T23:56:14.008Z,99706.56
2022-10-24T23:58:42.476Z,99710.81
